Cou Falls, Iowa
Current Conditions -  °F | °C
As of 6:52 PM on Wednesday 22 Oct 2014 (Local Time) from KCID Reporting Station
Clear Clear  
Wind Chill: 53°   Ceiling: Unl
Heat Index: 53°   Visibility: 10mi
Dew Point: 40°   Wind: 8mph
Humidity: 61%   Direction: 130°SE
Pressure: 30.18"   Gusts: NA
Location:  41.8309°N, 91.7193°W
Report Text: KCID 222352Z 13007KT 10SM CLR 12/04 A3018 RMK AO2 SLP224 T01170044 10156 20111 55005
Loading
Personal Weather Stations






























Interactive Weather Map New forecast layout! Learn more

10-Day Weather Forecast

Advertisements
Track Severe Weather on mobile